MET'MAP v2.0
soon released !

Expected late october,
this new version will be
more efficient, smarter,
and hosted on a brand new
server x3 powerfull...
...and still free !


Not compatible ?
Try the mobile version !

LOG IN : | Subscribe | Disclaimer | Who is Orbifly ? |
ICAO code :

TAF - ETNW Wunstorf AB - 22 Nov 2019 08:28 UTC - Data Source NOAA   


- Airport Elevation : 187 ft
- No reported NOTAMs.


ETNW - Wunstorf AB

Latest METAR recorded : 2015/08/11 07:20 ETNW 110720Z AUTO 29007KT 3600 // ////// 18/17 Q1017 ///
TAF COR TAF ETNW
Valid from the 22 at 06:00 until the 23 at 06:00 UTC


220559Z 2206/2306 13005KT 9999 NSW BKN070 BKN200
TEMPO 2206/2209 VRB03KT 2500 MIFG SCT070 BKN200
TEMPO 2218/2222 11008KT 4000 BR SCT005
BECMG 2222/2224 09008KT 3000 BR BKN005
PROB30 2300/2306 08008KT 0500 FG VV001 BY ETGL

Source NOAA


MET'MAP, your aeronautical weather chart ! - Copyright ORBIFLY December 2007

Programming & Development : Alexandra Zaïnal
Co-Developer : Marc-Olivier Méhu
Technical & hardware support : Manuel Goepfert
Concept & Financing : Baudouin d'Aumeries